Domov
logo

Sponzorovaný hosting od WebSupport.sk
Vlastný virtuálny server od 5,65 € od WebSupport.sk

Aktuálne počasie

LZIB - letisko Bratislava

Hodnoty namerané: 23.01.2018, 10:00 SEČ
Aktuálny čas: 23.01.2018, 10:26 SEČ
Aktualizované: pred 26 min.
Teplota: -1°C, pocitová teplota -7°C
Rosný bod: -1°C
Vietor: 6 km/h 70° (VSV)
Dohľadnosť: 1500 m
Stav počasia: slabý(é) sneženie, dymno
Oblačnosť: malá oblačnosť na 91 m, zamračené na 518 m
Základňa oblačnosti: 91 m
Vlhkosť vzduchu: 100 %
Tlak vzduchu: 1023 hPa
METAR: LZIB 230900Z 07003KT 1500 -SN BR FEW003 OVC017 M01/M01 Q1023 R13/650595 NOSIG

LZKZ - letisko Košice

Hodnoty namerané: 23.01.2018, 10:00 SEČ
Aktuálny čas: 23.01.2018, 10:26 SEČ
Aktualizované: pred 26 min.
Teplota: -6°C, pocitová teplota -12°C
Rosný bod: -9°C
Vietor: premenlivý 4 km/h
Dohľadnosť: viac ako 10 km
Stav počasia: bez zrážok
Oblačnosť: jasno
Vlhkosť vzduchu: 80 %
Tlak vzduchu: 1023 hPa
METAR: LZKZ 230900Z VRB02KT CAVOK M06/M09 Q1023 NOSIG

LZPP - letisko Piešťany

Hodnoty namerané: 23.01.2018, 10:00 SEČ
Aktuálny čas: 23.01.2018, 10:26 SEČ
Aktualizované: pred 26 min.
Teplota: -1°C, pocitová teplota -7°C
Rosný bod: -2°C
Vietor: 7 km/h 250° (ZJZ)
Dohľadnosť: 4000 m
Stav počasia: slabý(é) sneženie, dymno
Oblačnosť: polooblačno na 213 m, zamračené na 488 m
Základňa oblačnosti: 213 m
Vlhkosť vzduchu: 93 %
Tlak vzduchu: 1023 hPa
METAR: LZPP 230900Z 25004KT 4000 -SN BR SCT007 OVC016 M01/M02 Q1023

LZTT - letisko Poprad Tatry

Hodnoty namerané: 23.01.2018, 10:00 SEČ
Aktuálny čas: 23.01.2018, 10:26 SEČ
Aktualizované: pred 26 min.
Teplota: -9°C, pocitová teplota -17°C
Rosný bod: -11°C
Vietor: 6 km/h 50° (SV)
Dohľadnosť: viac ako 10 km
Stav počasia: bez zrážok
Oblačnosť: malá oblačnosť na 2134 m
Základňa oblačnosti: 2134 m
Vlhkosť vzduchu: 86 %
Tlak vzduchu: 1020 hPa
METAR: LZTT 230900Z 05003KT 9999 FEW070 M09/M11 Q1020 NOSIG

LZSL - letisko Sliač

Hodnoty namerané: 23.01.2018, 10:00 SEČ
Aktuálny čas: 23.01.2018, 10:26 SEČ
Aktualizované: pred 26 min.
Teplota: -3°C, pocitová teplota -8°C
Rosný bod: -5°C
Vietor: 4 km/h 290° (ZSZ)
Dohľadnosť: 4000 m
Stav počasia: dymno
Oblačnosť: oblačno na 1006 m
Základňa oblačnosti: 1006 m
Vlhkosť vzduchu: 86 %
Tlak vzduchu: 1022 hPa
METAR: LZSL 230900Z 29002KT 4000 BR BKN033 M03/M05 Q1022

LZZI - letisko Žilina

Hodnoty namerané: 23.01.2018, 10:00 SEČ
Aktuálny čas: 23.01.2018, 10:26 SEČ
Aktualizované: pred 26 min.
Teplota: -2°C, pocitová teplota -7°C
Rosný bod: -3°C
Vietor: 4 km/h 260° (Z)
Dohľadnosť: 3600 m
Stav počasia: dymno
Oblačnosť: zamračené na 366 m
Základňa oblačnosti: 366 m
Vlhkosť vzduchu: 93 %
Tlak vzduchu: 1022 hPa
METAR: LZZI 230900Z 26002KT 3600 BR OVC012 M02/M03 Q1022

POZNÁMKY:

SEČ - stredoeurópsky čas (UTC+1hod.)

SELČ - stredoeurópsky letný čas (UTC+2hod.)

UTC - univerzálny svetový čas, GMT, ZULU

METAR - sú pravidelné kódované letecké meteorologické správy. Tie zostavujú a zverejňujú meteorologické stanice letísk v polhodinových/hodinových intervaloch. Na tejto stránke správy METAR zo slovenských letísk nájdete už v dekódovanej podobe.

hore